createdAt,value
2019-03-11T00:00:03.805Z,100147.86
2019-03-11T00:02:34.282Z,100156.91
2019-03-11T00:05:04.802Z,100157.20
2019-03-11T00:07:35.312Z,100152.98
2019-03-11T00:10:06.319Z,100148.81
2019-03-11T00:12:36.886Z,100151.59
2019-03-11T00:15:07.917Z,100150.02
2019-03-11T00:17:38.426Z,100151.10
2019-03-11T00:20:09.150Z,100147.18
2019-03-11T00:22:39.701Z,100151.88
2019-03-11T00:25:10.591Z,100146.37
2019-03-11T00:27:41.054Z,100153.19
2019-03-11T00:30:12.127Z,100144.89
2019-03-11T00:32:42.678Z,100147.84
2019-03-11T00:35:13.284Z,100137.88
2019-03-11T00:37:43.770Z,100138.63
2019-03-11T00:40:14.550Z,100139.87
2019-03-11T00:42:45.077Z,100130.64
2019-03-11T00:45:15.719Z,100129.33
2019-03-11T00:47:46.283Z,100129.69
2019-03-11T00:50:16.786Z,100135.23
2019-03-11T00:52:47.340Z,100133.67
2019-03-11T00:55:17.938Z,100132.36
2019-03-11T00:57:48.425Z,100132.27
2019-03-11T01:00:29.494Z,100130.41
2019-03-11T01:03:00.008Z,100124.73
2019-03-11T01:05:30.515Z,100129.00
2019-03-11T01:08:01.128Z,100128.02
2019-03-11T01:10:31.618Z,100134.97
2019-03-11T01:13:02.132Z,100130.66
2019-03-11T01:15:32.623Z,100130.89
2019-03-11T01:18:03.129Z,100142.58
2019-03-11T01:20:33.634Z,100135.50
2019-03-11T01:23:04.134Z,100143.88
2019-03-11T01:25:34.691Z,100137.95
2019-03-11T01:28:05.234Z,100125.15
2019-03-11T01:30:35.755Z,100128.99
2019-03-11T01:33:06.245Z,100131.86
2019-03-11T01:35:36.757Z,100116.09
2019-03-11T01:38:07.260Z,100125.50
2019-03-11T01:40:37.757Z,100115.86
2019-03-11T01:43:08.225Z,100117.39
2019-03-11T01:45:38.833Z,100107.05
2019-03-11T01:48:09.339Z,100104.63
2019-03-11T01:50:39.822Z,100099.47
2019-03-11T01:53:10.438Z,100089.64
2019-03-11T01:55:40.921Z,100095.22
2019-03-11T01:58:11.471Z,100087.39
2019-03-11T02:00:42.324Z,100084.70
2019-03-11T02:03:12.907Z,100088.34
2019-03-11T02:05:43.458Z,100086.47
2019-03-11T02:08:13.941Z,100081.11
2019-03-11T02:10:44.426Z,100074.78
2019-03-11T02:13:14.937Z,100068.27
2019-03-11T02:15:45.458Z,100073.42
2019-03-11T02:18:15.973Z,100063.39
2019-03-11T02:20:46.440Z,100056.21
2019-03-11T02:23:16.937Z,100061.92
2019-03-11T02:25:47.436Z,100060.54
2019-03-11T02:28:18.776Z,100049.55
2019-03-11T02:30:49.266Z,100043.49
2019-03-11T02:33:19.776Z,100046.55
2019-03-11T02:35:50.253Z,100038.88
2019-03-11T02:38:20.762Z,100036.73
2019-03-11T02:40:51.459Z,100035.33
2019-03-11T02:43:21.923Z,100040.03
2019-03-11T02:45:52.431Z,100029.09
2019-03-11T02:48:22.908Z,100025.67
2019-03-11T02:50:53.389Z,100026.35
2019-03-11T02:53:23.897Z,100017.22
2019-03-11T02:55:54.376Z,100011.59
2019-03-11T02:58:24.897Z,100008.46
2019-03-11T03:01:24.919Z,100007.59
2019-03-11T03:04:02.340Z,99996.72
2019-03-11T03:06:32.833Z,99993.01
2019-03-11T03:09:03.296Z,99989.62
2019-03-11T03:11:33.787Z,99992.65
2019-03-11T03:14:04.307Z,99983.88
2019-03-11T03:16:34.896Z,99983.16
2019-03-11T03:19:05.365Z,99976.64
2019-03-11T03:21:35.852Z,99974.39
2019-03-11T03:24:06.351Z,99973.28
2019-03-11T03:26:36.849Z,99975.23
2019-03-11T03:29:07.338Z,99979.64
2019-03-11T03:31:37.851Z,99977.45
2019-03-11T03:34:08.297Z,99977.50
2019-03-11T03:36:38.845Z,99971.70
2019-03-11T03:39:09.716Z,99975.77
2019-03-11T03:41:40.398Z,99970.23
2019-03-11T03:44:10.934Z,99973.33
2019-03-11T03:46:41.442Z,99978.91
2019-03-11T03:49:11.944Z,99960.49
2019-03-11T03:51:42.442Z,99973.34
2019-03-11T03:54:12.922Z,99965.00
2019-03-11T03:56:43.386Z,99969.84
2019-03-11T03:59:13.882Z,99971.34
2019-03-11T04:01:44.349Z,99977.89
2019-03-11T04:04:14.845Z,99964.52
2019-03-11T04:06:45.329Z,99974.22
2019-03-11T04:09:15.795Z,99984.81
2019-03-11T04:11:46.278Z,99978.71
2019-03-11T04:14:16.794Z,99980.38
2019-03-11T04:16:47.254Z,99983.20
2019-03-11T04:19:17.707Z,99987.22
2019-03-11T04:21:48.359Z,99985.77
2019-03-11T04:24:18.832Z,99984.55
2019-03-11T04:26:55.064Z,99982.70
2019-03-11T04:29:25.554Z,99986.41
2019-03-11T04:31:56.066Z,99991.61
2019-03-11T04:34:26.445Z,99992.91
2019-03-11T04:36:56.935Z,100003.50
2019-03-11T04:39:27.457Z,100007.02
2019-03-11T04:41:57.968Z,99997.93
2019-03-11T04:44:28.462Z,100007.40
2019-03-11T04:46:58.961Z,100010.00
2019-03-11T04:49:29.494Z,100002.66
2019-03-11T04:52:00.026Z,100015.48
2019-03-11T04:54:30.603Z,100017.16
2019-03-11T04:57:01.178Z,100021.34
2019-03-11T04:59:31.672Z,100024.13
2019-03-11T05:02:02.147Z,100023.85
2019-03-11T05:04:32.639Z,100021.55
2019-03-11T05:07:03.002Z,100021.91
2019-03-11T05:09:33.464Z,100017.36
2019-03-11T05:12:04.002Z,100018.66
2019-03-11T05:14:34.468Z,100020.89
2019-03-11T05:17:04.991Z,100027.10
2019-03-11T05:19:35.978Z,100032.32
2019-03-11T05:22:06.416Z,100028.78
2019-03-11T05:24:36.889Z,100031.20
2019-03-11T05:27:07.396Z,100029.72
2019-03-11T05:29:37.907Z,100031.55
2019-03-11T05:32:08.405Z,100024.89
2019-03-11T05:34:38.913Z,100030.25
2019-03-11T05:37:09.506Z,100023.30
2019-03-11T05:39:39.953Z,100033.44
2019-03-11T05:42:10.508Z,100030.64
2019-03-11T05:44:40.976Z,100023.77
2019-03-11T05:47:11.482Z,100020.72
2019-03-11T05:49:41.972Z,100020.88
2019-03-11T05:52:12.481Z,100030.29
2019-03-11T05:54:42.960Z,100024.70
2019-03-11T05:57:13.491Z,100018.86
2019-03-11T05:59:43.956Z,100027.67
2019-03-11T06:02:14.444Z,100035.30
2019-03-11T06:04:44.990Z,100039.20
2019-03-11T06:07:15.482Z,100033.72
2019-03-11T06:09:45.957Z,100034.55
2019-03-11T06:12:16.542Z,100038.81
2019-03-11T06:14:47.095Z,100048.50
2019-03-11T06:17:17.671Z,100039.00
2019-03-11T06:19:49.815Z,100038.46
2019-03-11T06:22:23.717Z,100040.86
2019-03-11T06:25:44.784Z,100034.34
2019-03-11T06:28:15.243Z,100043.27
2019-03-11T06:30:45.771Z,100042.59
2019-03-11T06:33:16.261Z,100047.16
2019-03-11T06:35:46.737Z,100058.67
2019-03-11T06:38:17.242Z,100074.47
2019-03-11T06:40:47.731Z,100075.50
2019-03-11T06:43:18.199Z,100068.91
2019-03-11T06:45:48.725Z,100073.81
2019-03-11T06:48:19.204Z,100075.23
2019-03-11T06:50:49.732Z,100094.03
2019-03-11T06:53:20.218Z,100091.24
2019-03-11T06:55:50.745Z,100094.51
2019-03-11T06:58:21.200Z,100103.70
2019-03-11T07:00:51.730Z,100100.62
2019-03-11T07:03:22.199Z,100109.83
2019-03-11T07:05:52.714Z,100115.02
2019-03-11T07:08:23.216Z,100134.52
2019-03-11T07:10:53.713Z,100136.34
2019-03-11T07:13:24.218Z,100138.74
2019-03-11T07:15:54.755Z,100146.42
2019-03-11T07:18:25.259Z,100149.67
2019-03-11T07:20:55.713Z,100131.88
2019-03-11T07:23:26.208Z,100135.33
2019-03-11T07:25:56.697Z,100137.73
2019-03-11T07:28:27.150Z,100140.45
2019-03-11T07:30:57.693Z,100131.06
2019-03-11T07:33:28.206Z,100136.27
2019-03-11T07:35:58.747Z,100134.72
2019-03-11T07:38:29.372Z,100137.12
2019-03-11T07:40:59.864Z,100141.63
2019-03-11T07:43:30.394Z,100142.36
2019-03-11T07:46:01.014Z,100151.55
2019-03-11T07:48:31.736Z,100161.42
2019-03-11T07:51:02.285Z,100162.16
2019-03-11T07:53:32.784Z,100164.84
2019-03-11T07:56:03.287Z,100178.12
2019-03-11T07:58:33.759Z,100184.42
2019-03-11T08:01:04.293Z,100187.80
2019-03-11T08:03:34.760Z,100193.81
2019-03-11T08:06:05.221Z,100194.45
2019-03-11T08:08:35.860Z,100211.36
2019-03-11T08:11:06.340Z,100215.62
2019-03-11T08:13:36.859Z,100209.24
2019-03-11T08:16:07.350Z,100212.13
2019-03-11T08:18:37.865Z,100211.36
2019-03-11T08:21:08.322Z,100207.25
2019-03-11T08:23:38.836Z,100202.09
2019-03-11T08:26:09.334Z,100203.31
2019-03-11T08:28:39.801Z,100195.59
2019-03-11T08:31:11.280Z,100201.20
2019-03-11T08:33:43.527Z,100203.33
2019-03-11T08:36:13.957Z,100202.34
2019-03-11T08:38:44.563Z,100203.33
2019-03-11T08:43:44.229Z,100211.38
2019-03-11T08:46:14.779Z,100213.98
2019-03-11T08:48:45.312Z,100218.94
2019-03-11T08:51:15.861Z,100225.89
2019-03-11T08:53:46.455Z,100222.47
2019-03-11T08:56:16.937Z,100226.94
2019-03-11T08:58:47.532Z,100228.44
2019-03-11T09:01:18.641Z,100229.38
2019-03-11T09:03:49.228Z,100229.74
2019-03-11T09:06:19.686Z,100232.91
2019-03-11T09:08:50.366Z,100238.34
2019-03-11T09:11:20.857Z,100243.18
2019-03-11T09:13:51.364Z,100244.78
2019-03-11T09:16:21.908Z,100244.28
2019-03-11T09:18:52.516Z,100244.65
2019-03-11T09:21:23.065Z,100251.36
2019-03-11T09:23:53.631Z,100246.15
2019-03-11T09:26:24.163Z,100242.80
2019-03-11T09:28:54.810Z,100255.97
2019-03-11T09:31:25.427Z,100262.20
2019-03-11T09:33:56.034Z,100255.13
2019-03-11T09:36:26.626Z,100262.29
2019-03-11T09:38:57.302Z,100258.66
2019-03-11T09:41:27.846Z,100271.52
2019-03-11T09:43:58.420Z,100275.50
2019-03-11T09:46:29.016Z,100273.17
2019-03-11T09:48:59.602Z,100285.47
2019-03-11T09:51:30.238Z,100281.25
2019-03-11T09:54:00.851Z,100278.65
2019-03-11T09:56:31.452Z,100276.33
2019-03-11T09:59:02.432Z,100274.24
2019-03-11T10:01:33.553Z,100272.36
2019-03-11T10:04:04.090Z,100273.27
2019-03-11T10:06:34.605Z,100281.18
2019-03-11T10:09:06.272Z,100281.63
2019-03-11T10:11:36.857Z,100281.05
2019-03-11T10:14:07.385Z,100289.05
2019-03-11T10:16:37.966Z,100289.95
2019-03-11T10:19:08.493Z,100289.41
2019-03-11T10:21:39.007Z,100283.27
2019-03-11T10:24:09.588Z,100295.30
2019-03-11T10:26:40.129Z,100286.92
2019-03-11T10:29:39.156Z,100297.86
2019-03-11T10:31:59.567Z,100299.77
2019-03-11T10:34:30.089Z,100295.84
2019-03-11T10:37:00.684Z,100300.20
2019-03-11T10:40:05.526Z,100297.71
2019-03-11T10:42:36.047Z,100300.41
2019-03-11T10:45:07.196Z,100305.11
2019-03-11T10:47:37.872Z,100304.48
2019-03-11T10:50:10.159Z,100303.10
2019-03-11T10:52:41.560Z,100311.70
2019-03-11T10:55:13.936Z,100309.00
2019-03-11T10:57:44.524Z,100314.61
2019-03-11T11:00:19.239Z,100306.74
2019-03-11T11:02:49.950Z,100315.96
2019-03-11T11:05:20.687Z,100320.86
2019-03-11T11:07:51.237Z,100318.16
2019-03-11T11:10:22.282Z,100331.48
2019-03-11T11:12:53.007Z,100328.91
2019-03-11T11:15:24.258Z,100323.30
2019-03-11T11:17:55.446Z,100326.69
2019-03-11T11:20:26.506Z,100330.12
2019-03-11T11:22:57.748Z,100326.06
2019-03-11T11:25:28.360Z,100329.53
2019-03-11T11:27:59.019Z,100325.86
2019-03-11T11:30:29.608Z,100326.30
2019-03-11T11:33:00.263Z,100324.20
2019-03-11T11:35:30.784Z,100329.59
2019-03-11T11:38:01.367Z,100337.48
2019-03-11T11:40:31.964Z,100349.09
2019-03-11T11:43:02.624Z,100352.53
2019-03-11T11:45:33.470Z,100356.66
2019-03-11T11:48:03.979Z,100370.94
2019-03-11T11:50:34.521Z,100369.05
2019-03-11T11:53:05.019Z,100372.77
2019-03-11T11:55:35.599Z,100376.07
2019-03-11T11:58:06.093Z,100370.19
2019-03-11T12:00:38.056Z,100373.30
2019-03-11T12:03:08.518Z,100372.94
2019-03-11T12:05:39.091Z,100380.08
2019-03-11T12:08:09.673Z,100380.77
2019-03-11T12:10:40.155Z,100382.75
2019-03-11T12:13:10.688Z,100381.98
2019-03-11T12:15:41.232Z,100389.76
2019-03-11T12:18:11.860Z,100388.76
2019-03-11T12:20:42.414Z,100393.14
2019-03-11T12:23:13.011Z,100388.62
2019-03-11T12:25:43.467Z,100394.26
2019-03-11T12:28:13.988Z,100392.78
2019-03-11T12:30:44.670Z,100393.63
2019-03-11T12:33:15.278Z,100396.08
2019-03-11T12:35:45.817Z,100395.75
2019-03-11T12:38:16.484Z,100396.43
2019-03-11T12:40:47.004Z,100393.13
2019-03-11T12:43:17.585Z,100406.45
2019-03-11T12:45:48.280Z,100398.48
2019-03-11T12:48:18.808Z,100401.41
2019-03-11T12:50:49.310Z,100403.66
2019-03-11T12:53:19.871Z,100409.97
2019-03-11T12:55:50.322Z,100411.69
2019-03-11T12:58:20.822Z,100414.15
2019-03-11T13:00:56.931Z,100419.19
2019-03-11T13:03:44.425Z,100422.66
2019-03-11T13:06:15.084Z,100416.77
2019-03-11T13:08:48.380Z,100419.75
2019-03-11T13:11:18.967Z,100422.17
2019-03-11T13:13:49.467Z,100423.98
2019-03-11T13:16:19.931Z,100427.46
2019-03-11T13:18:53.780Z,100440.42
2019-03-11T13:21:33.434Z,100442.50
2019-03-11T13:24:04.071Z,100442.82
2019-03-11T13:26:34.567Z,100440.91
2019-03-11T13:29:05.115Z,100445.71
2019-03-11T13:31:35.703Z,100448.30
2019-03-11T13:34:06.249Z,100458.11
2019-03-11T13:36:36.791Z,100452.26
2019-03-11T13:39:09.535Z,100463.00
2019-03-11T13:41:40.016Z,100459.86
2019-03-11T13:44:10.599Z,100467.43
2019-03-11T13:46:41.086Z,100465.17
2019-03-11T13:49:11.579Z,100473.72
2019-03-11T13:51:42.212Z,100473.80
2019-03-11T13:54:12.706Z,100477.75
2019-03-11T13:56:56.679Z,100476.50
2019-03-11T13:59:35.102Z,100483.51
2019-03-11T14:02:01.358Z,100484.64
2019-03-11T14:04:31.912Z,100483.34
2019-03-11T14:07:02.500Z,100488.91
2019-03-11T14:09:32.988Z,100487.31
2019-03-11T14:12:03.522Z,100493.98
2019-03-11T14:14:34.066Z,100492.14
2019-03-11T14:17:04.561Z,100491.82
2019-03-11T14:19:35.055Z,100499.85
2019-03-11T14:22:05.643Z,100501.16
2019-03-11T14:24:36.101Z,100509.28
2019-03-11T14:27:06.627Z,100514.56
2019-03-11T14:29:37.178Z,100514.80
2019-03-11T14:32:08.248Z,100520.25
2019-03-11T14:34:38.828Z,100525.98
2019-03-11T14:37:09.408Z,100527.36
2019-03-11T14:39:39.970Z,100530.82
2019-03-11T14:58:28.775Z,100574.52
2019-03-11T15:00:50.534Z,100570.27
2019-03-11T15:03:21.078Z,100574.95
2019-03-11T15:05:53.536Z,100569.01
2019-03-11T15:08:23.913Z,100574.62
2019-03-11T15:10:56.964Z,100582.63
2019-03-11T15:13:27.629Z,100588.59
2019-03-11T15:15:58.132Z,100589.09
2019-03-11T15:18:28.735Z,100600.30
2019-03-11T15:20:59.300Z,100607.00
2019-03-11T15:23:29.821Z,100619.27
2019-03-11T15:26:00.379Z,100622.82
2019-03-11T15:28:30.932Z,100630.20
2019-03-11T15:31:10.159Z,100629.52
2019-03-11T15:33:33.786Z,100628.22
2019-03-11T15:36:04.318Z,100638.38
2019-03-11T15:38:34.939Z,100646.16
2019-03-11T15:41:05.534Z,100651.12
2019-03-11T15:43:36.036Z,100659.26
2019-03-11T15:46:06.597Z,100658.73
2019-03-11T15:48:37.181Z,100670.16
2019-03-11T15:51:07.828Z,100666.30
2019-03-11T15:53:38.474Z,100679.95
2019-03-11T15:56:09.010Z,100672.38
2019-03-11T15:58:39.523Z,100679.83
2019-03-11T16:01:10.004Z,100687.31
2019-03-11T16:03:40.509Z,100689.94
2019-03-11T16:06:10.980Z,100694.98
2019-03-11T16:08:41.500Z,100698.63
2019-03-11T16:11:11.995Z,100712.75
2019-03-11T16:13:42.525Z,100711.08
2019-03-11T16:16:12.998Z,100716.67
2019-03-11T16:18:43.518Z,100720.14
2019-03-11T16:21:14.057Z,100727.14
2019-03-11T16:23:44.592Z,100732.37
2019-03-11T16:26:15.182Z,100741.34
2019-03-11T16:28:48.391Z,100745.27
2019-03-11T16:31:17.895Z,100744.99
2019-03-11T16:33:48.570Z,100753.11
2019-03-11T16:36:19.055Z,100754.52
2019-03-11T16:38:49.575Z,100757.12
2019-03-11T16:41:20.151Z,100771.73
2019-03-11T16:43:50.688Z,100771.33
2019-03-11T16:46:21.189Z,100777.97
2019-03-11T16:48:51.707Z,100779.30
2019-03-11T16:51:22.219Z,100792.55
2019-03-11T16:53:52.719Z,100797.12
2019-03-11T16:56:23.233Z,100802.84
2019-03-11T16:58:53.774Z,100805.45
2019-03-11T17:01:24.417Z,100815.52
2019-03-11T17:03:54.975Z,100813.86
2019-03-11T17:06:25.439Z,100822.35
2019-03-11T17:08:55.979Z,100833.63
2019-03-11T17:11:26.555Z,100842.99
2019-03-11T17:13:57.094Z,100840.57
2019-03-11T17:16:27.592Z,100847.09
2019-03-11T17:18:58.178Z,100864.66
2019-03-11T17:21:28.689Z,100868.75
2019-03-11T17:23:59.187Z,100882.68
2019-03-11T17:26:29.704Z,100888.36
2019-03-11T17:29:00.200Z,100897.15
2019-03-11T17:31:30.687Z,100897.97
2019-03-11T17:34:01.214Z,100907.78
2019-03-11T17:36:31.667Z,100904.59
2019-03-11T17:39:04.416Z,100915.78
2019-03-11T17:41:34.964Z,100931.27
2019-03-11T17:44:05.523Z,100934.25
2019-03-11T17:46:36.040Z,100932.36
2019-03-11T17:49:06.602Z,100940.41
2019-03-11T17:51:37.098Z,100947.06
2019-03-11T17:54:07.617Z,100948.08
2019-03-11T17:56:38.146Z,100958.45
2019-03-11T17:59:08.646Z,100962.89
2019-03-11T18:01:39.122Z,100968.97
2019-03-11T18:04:09.648Z,100972.59
2019-03-11T18:06:40.140Z,100983.69
2019-03-11T18:09:10.608Z,100987.47
2019-03-11T18:11:41.158Z,100989.93
2019-03-11T18:14:11.649Z,101000.45
2019-03-11T18:16:42.131Z,101004.02
2019-03-11T18:19:12.701Z,101014.53
2019-03-11T18:21:43.198Z,101021.94
2019-03-11T18:24:13.714Z,101019.11
2019-03-11T18:26:44.218Z,101023.03
2019-03-11T18:29:14.733Z,101031.20
2019-03-11T18:31:45.981Z,101044.41
2019-03-11T18:34:16.657Z,101056.54
2019-03-11T18:36:47.193Z,101071.09
2019-03-11T18:39:19.255Z,101073.41
2019-03-11T18:41:50.207Z,101085.00
2019-03-11T18:44:20.741Z,101081.09
2019-03-11T18:46:51.258Z,101086.94
2019-03-11T18:49:21.904Z,101092.76
2019-03-11T18:51:52.402Z,101109.73
2019-03-11T18:54:23.051Z,101113.22
2019-03-11T18:56:53.800Z,101111.91
2019-03-11T18:59:24.256Z,101112.20
2019-03-11T19:01:54.815Z,101114.37
2019-03-11T19:04:25.424Z,101109.84
2019-03-11T19:06:55.915Z,101117.52
2019-03-11T19:09:26.370Z,101115.97
2019-03-11T19:11:56.911Z,101115.28
2019-03-11T19:14:27.380Z,101116.28
2019-03-11T19:16:57.943Z,101117.14
2019-03-11T19:19:28.428Z,101126.52
2019-03-11T19:21:58.974Z,101129.27
2019-03-11T19:24:29.484Z,101138.55
2019-03-11T19:27:00.007Z,101147.44
2019-03-11T19:29:30.485Z,101149.36
2019-03-11T19:32:01.017Z,101151.45
2019-03-11T19:34:31.523Z,101159.28
2019-03-11T19:37:01.970Z,101167.02
2019-03-11T19:39:32.485Z,101169.69
2019-03-11T19:42:03.065Z,101165.70
2019-03-11T19:44:33.593Z,101171.55
2019-03-11T19:47:04.064Z,101175.45
2019-03-11T19:49:34.585Z,101175.21
2019-03-11T19:52:05.062Z,101184.79
2019-03-11T19:54:35.538Z,101192.23
2019-03-11T19:57:06.095Z,101202.74
2019-03-11T19:59:36.583Z,101203.73
2019-03-11T20:02:07.211Z,101206.82
2019-03-11T20:04:37.740Z,101211.05
2019-03-11T20:07:08.241Z,101202.66
2019-03-11T20:09:38.711Z,101215.08
2019-03-11T20:12:09.210Z,101217.38
2019-03-11T20:14:39.692Z,101222.59
2019-03-11T20:17:10.225Z,101224.91
2019-03-11T20:19:40.735Z,101230.50
2019-03-11T20:22:11.296Z,101241.86
2019-03-11T20:24:41.849Z,101233.41
2019-03-11T20:27:12.397Z,101238.23
2019-03-11T20:29:42.889Z,101244.03
2019-03-11T20:32:13.399Z,101254.08
2019-03-11T20:34:44.227Z,101260.78
2019-03-11T20:37:14.731Z,101265.46
2019-03-11T20:39:45.186Z,101258.78
2019-03-11T20:42:15.731Z,101261.84
2019-03-11T20:44:46.433Z,101266.00
2019-03-11T20:47:16.921Z,101261.97
2019-03-11T20:49:47.423Z,101270.36
2019-03-11T20:52:18.062Z,101273.13
2019-03-11T20:54:48.741Z,101279.02
2019-03-11T20:57:19.236Z,101283.38
2019-03-11T20:59:49.761Z,101274.44
2019-03-11T21:02:20.205Z,101285.00
2019-03-11T21:04:50.813Z,101305.83
2019-03-11T21:07:21.445Z,101319.19
2019-03-11T21:09:52.087Z,101321.98
2019-03-11T21:12:23.275Z,101323.67
2019-03-11T21:14:53.806Z,101324.66
2019-03-11T21:17:26.979Z,101332.57
2019-03-11T21:19:56.531Z,101323.03
2019-03-11T21:22:27.096Z,101327.35
2019-03-11T21:24:59.962Z,101328.30
2019-03-11T21:27:29.815Z,101331.77
2019-03-11T21:30:00.429Z,101332.44
2019-03-11T21:32:32.142Z,101329.19
2019-03-11T21:35:02.693Z,101323.39
2019-03-11T21:37:33.278Z,101328.66
2019-03-11T21:40:03.979Z,101332.63
2019-03-11T21:42:37.598Z,101327.09
2019-03-11T21:45:07.738Z,101339.24
2019-03-11T21:47:38.202Z,101332.41
2019-03-11T21:50:11.431Z,101345.67
2019-03-11T21:52:41.964Z,101346.59
2019-03-11T21:55:12.482Z,101355.77
2019-03-11T21:57:43.007Z,101356.05
2019-03-11T22:00:17.259Z,101367.23
2019-03-11T22:02:47.809Z,101373.90
2019-03-11T22:05:18.303Z,101374.45
2019-03-11T22:07:48.830Z,101370.88
2019-03-11T22:10:19.465Z,101371.25
2019-03-11T22:12:50.062Z,101369.24
2019-03-11T22:15:20.665Z,101383.63
2019-03-11T22:17:51.162Z,101391.45
2019-03-11T22:20:21.649Z,101390.94
2019-03-11T22:22:52.231Z,101391.81
2019-03-11T22:25:22.750Z,101397.12
2019-03-11T22:27:53.234Z,101399.89
2019-03-11T22:30:23.734Z,101409.64
2019-03-11T22:32:54.296Z,101408.88
2019-03-11T22:35:24.751Z,101409.37
2019-03-11T22:37:55.234Z,101406.77
2019-03-11T22:40:25.736Z,101411.64
2019-03-11T22:42:56.259Z,101422.89
2019-03-11T22:45:26.715Z,101419.31
2019-03-11T22:47:57.263Z,101419.02
2019-03-11T22:50:27.717Z,101421.39
2019-03-11T22:52:58.179Z,101433.22
2019-03-11T22:55:28.795Z,101441.03
2019-03-11T22:57:59.256Z,101441.61
2019-03-11T23:00:56.143Z,101438.23
2019-03-11T23:03:27.174Z,101453.09
2019-03-11T23:05:58.661Z,101455.02
2019-03-11T23:08:29.328Z,101474.44
2019-03-11T23:10:59.845Z,101470.91
2019-03-11T23:13:30.319Z,101468.37
2019-03-11T23:16:00.887Z,101470.77
2019-03-11T23:18:31.390Z,101472.18
2019-03-11T23:21:01.851Z,101472.85
2019-03-11T23:23:32.386Z,101476.47
2019-03-11T23:26:02.877Z,101480.80
2019-03-11T23:28:33.264Z,101487.41
2019-03-11T23:31:03.845Z,101492.28
2019-03-11T23:33:34.350Z,101486.34
2019-03-11T23:36:07.293Z,101478.54
2019-03-11T23:38:36.985Z,101478.20
2019-03-11T23:41:07.493Z,101473.54
2019-03-11T23:43:37.877Z,101470.99
2019-03-11T23:46:08.370Z,101471.75
2019-03-11T23:48:38.933Z,101473.11
2019-03-11T23:51:09.432Z,101476.63
2019-03-11T23:53:39.924Z,101481.83
2019-03-11T23:56:10.430Z,101479.95
2019-03-11T23:58:40.869Z,101471.47
